Campiña-No se requiere un especial cuidado respecto a la situación meteorológica.   -   No hay avisos

Informes METAR

 

LEZL - Sevilla, Spain
Distancia de la estación: ENE 8km
Actualización: 18/01/2020 21:00
Muy nuboso
Muy nuboso
 Viento de SO
Viento: SO 19 km/h
Temperatura: 16°C
Rocío: 15°C
Humedad: 94%
Barómetro: 1025 hPa
Nubes: Muy nuboso
Visibilidad: 10 km
Detalles de las nubes: Muy nuboso 152 m
2020/01/18 20:00 LEZL 182000Z 22010KT 9999 BKN005 16/15 Q1025 NOSIG
LEMO - Morón, Spain
Distancia de la estación: SE 43km
Actualización: 18/01/2020 21:00
Lluvia débil, Neblina, Muy nuboso
Lluvia débil, Neblina, Muy nuboso
 Viento de OSO
Viento: OSO 22 km/h
Temperatura: 15°C
Rocío: 15°C
Humedad: 100%
Barómetro: 1026 hPa
Resumen: Lluvia débil, Neblina
Nubes: Muy nuboso
Visibilidad: 4 km
Detalles de las nubes: Muy nuboso 91 m
2020/01/18 20:00 LEMO 182000Z 24012KT 4000 -RA BR BKN003 15/15 Q1026 REDZ NOSIG
LEJR - Jeréz, Spain
Distancia de la estación: S 71km
Actualización: 18/01/2020 21:30
Cubierto
Cubierto
 Viento de OSO
Viento: OSO 20 km/h
Temperatura: 16°C
Rocío: 16°C
Humedad: 100%
Barómetro: 1026 hPa
Nubes: Cubierto
Visibilidad: 9 km
Detalles de las nubes: Cubierto 244 m
2020/01/18 20:30 LEJR 182030Z 24011KT 9000 OVC008 16/16 Q1026
 
LERT - Rota, Spain
Distancia de la estación: SSO 89km
Actualización: 18/01/2020 21:00
Muy nuboso
Muy nuboso
 Viento de OSO
Viento: OSO 24 km/h
Temperatura: 16°C
Rocío: 16°C
Humedad: 100%
Barómetro: 1027 hPa
Nubes: Muy nuboso
Visibilidad: 8 km
Detalles de las nubes: Parcialmente nuboso 122 m
Muy nuboso 1219 m
2020/01/18 20:00 LERT 182000Z 25013KT 8000 SCT004 BKN040 16/16 Q1027 TEMPO 2000 -RA BKN004
LEMG - Málaga, Spain
Distancia de la estación: ESE 157km
Actualización: 18/01/2020 21:00
Muy nuboso
Muy nuboso
 Viento de O
Viento: O 6 km/h
Temperatura: 13°C
Rocío: 12°C
Humedad: 94%
Barómetro: 1026 hPa
Nubes: Muy nuboso
Visibilidad: 10 km
Detalles de las nubes: Parcialmente nuboso 732 m
Muy nuboso 1524 m
2020/01/18 20:00 LEMG 182000Z 28003KT 240V300 9999 SCT024 BKN050 13/12 Q1026 NOSIG
LEBA - Córdoba, Spain
Distancia de la estación: ENE 115km
Actualización: 18/01/2020 21:00
Neblina, Cubierto
Neblina, Cubierto
 Viento de calm
Viento: Calma
Temperatura: 11°C
Rocío: 10°C
Humedad: 94%
Barómetro: 1024 hPa
Resumen: Neblina
Nubes: Cubierto
Visibilidad: 4 km
Detalles de las nubes: Cubierto 244 m
2020/01/18 20:00 LEBA 182000Z AUTO 00000KT 4300 BR OVC008 11/10 Q1024
 
LEGR - Granada, Spain
Distancia de la estación: E 198km
Actualización: 18/01/2020 21:00
Neblina, Muy nuboso
Neblina, Muy nuboso
 Viento de variable
Viento: variable 2 km/h
Temperatura: 9°C
Rocío: 9°C
Humedad: 100%
Barómetro: 1026 hPa
Resumen: Neblina
Nubes: Muy nuboso
Visibilidad: 3 km
Detalles de las nubes: Parcialmente nuboso 457 m
Muy nuboso 1524 m
2020/01/18 20:00 LEGR 182000Z VRB01KT 3000 BR SCT015 BKN050 09/09 Q1026
LEAM - Almería, Spain
Distancia de la estación: E 326km
Actualización: 18/01/2020 21:00
Poco nuboso
Poco nuboso
 Viento de OSO
Viento: OSO 9 km/h
Temperatura: 13°C
Rocío: 11°C
Humedad: 88%
Barómetro: 1024 hPa
Nubes: Poco nuboso
Visibilidad: 10 km
Detalles de las nubes: Poco nuboso 305 m
2020/01/18 20:00 LEAM 182000Z 24005KT 190V270 9999 FEW010 13/11 Q1024
LEMD - Madrid/Barajas, Spain
Distancia de la estación: NNE 402km
Actualización: 18/01/2020 21:00
Muy nuboso
Muy nuboso
 Viento de OSO
Viento: OSO 11 km/h
Temperatura: 9°C
Sensación térmica: 7°C
Rocío: 7°C
Humedad: 87%
Barómetro: 1020 hPa
Nubes: Muy nuboso
Visibilidad: 10 km
Detalles de las nubes: Poco nuboso 152 m
Muy nuboso 366 m
2020/01/18 20:00 LEMD 182000Z 25006KT 9999 FEW005 BKN012 09/07 Q1020 NOSIG
 
LEVD - Valladolid, Spain
Distancia de la estación: N 492km
Actualización: 18/01/2020 21:00
Poco nuboso
Poco nuboso
 Viento de NNO
Viento: NNO 9 km/h
Temperatura: 4°C
Sensación térmica: 2°C
Rocío: 3°C
Humedad: 93%
Barómetro: 1020 hPa
Nubes: Poco nuboso
Visibilidad: 10 km
Detalles de las nubes: Poco nuboso 518 m
2020/01/18 20:00 LEVD 182000Z 34005KT 9999 FEW017 04/03 Q1020
LEBL - Barcelona, Spain
Distancia de la estación: NE 816km
Actualización: 18/01/2020 21:00
Muy nuboso
Muy nuboso
 Viento de calm
Viento: Calma
Temperatura: 11°C
Rocío: 7°C
Humedad: 77%
Barómetro: 1022 hPa
Nubes: Muy nuboso
Visibilidad: 10 km
Detalles de las nubes: Muy nuboso 762 m
2020/01/18 20:00 LEBL 182000Z 00000KT 9999 BKN025 11/07 Q1022 NOSIG
LEVC - Valencia, Spain
Distancia de la estación: ENE 535km
Actualización: 18/01/2020 21:00
Poco nuboso
Poco nuboso
 Viento de SO
Viento: SO 11 km/h
Temperatura: 14°C
Rocío: 8°C
Humedad: 67%
Barómetro: 1020 hPa
Nubes: Poco nuboso
Visibilidad: 10 km
Detalles de las nubes: Poco nuboso 1219 m
2020/01/18 20:00 LEVC 182000Z 23006KT 9999 FEW040 14/08 Q1020 NOSIG